Time;durP1;ratioP1;P1;durP2;ratioP2;P2;SDS_P1;SDS_P2;PMS_P1;PMS_P2;Temp;Humidity;BMP_temperature;BMP_pressure;BME280_temperature;BME280_humidity;BME280_pressure;Samples;Min_cycle;Max_cycle;Signal;HPM_P1;HPM_P2
2022/11/27 00:00:39;;;;;;;27.60;7.03;;;5.50;99.90;;;;;;4997527;28;20696;-50
2022/11/27 00:03:05;;;;;;;25.08;6.90;;;5.40;99.90;;;;;;4999373;28;20126;-48
2022/11/27 00:05:31;;;;;;;24.08;7.05;;;5.30;99.90;;;;;;4996605;28;20567;-47
2022/11/27 00:07:56;;;;;;;25.27;8.18;;;5.50;99.90;;;;;;4998462;28;20516;-47
2022/11/27 00:10:22;;;;;;;24.88;6.97;;;5.50;99.90;;;;;;4995897;28;20576;-48
2022/11/27 00:12:48;;;;;;;28.27;7.07;;;5.50;99.90;;;;;;4998042;28;20073;-50
2022/11/27 00:15:14;;;;;;;27.95;8.20;;;;;;;;;;5000680;28;20530;-50
2022/11/27 00:17:40;;;;;;;27.23;7.45;;;5.60;99.90;;;;;;4999080;28;20406;-48
2022/11/27 00:20:06;;;;;;;24.77;7.45;;;5.50;99.90;;;;;;5000138;28;20521;-48
2022/11/27 00:22:32;;;;;;;26.75;7.07;;;;;;;;;;4998436;28;20682;-50
2022/11/27 00:24:58;;;;;;;29.75;7.15;;;;;;;;;;5000719;28;20520;-47
2022/11/27 00:27:25;;;;;;;22.60;7.47;;;5.40;99.90;;;;;;4997904;28;20737;-48
2022/11/27 00:29:50;;;;;;;24.30;6.35;;;5.40;99.90;;;;;;4999311;28;20955;-47
2022/11/27 00:32:16;;;;;;;19.83;6.57;;;;;;;;;;4999567;28;20054;-46
2022/11/27 00:34:42;;;;;;;22.13;7.40;;;5.50;99.90;;;;;;4997806;28;20632;-46
2022/11/27 00:37:09;;;;;;;28.98;7.25;;;;;;;;;;4997779;28;20052;-51
2022/11/27 00:39:34;;;;;;;25.15;6.97;;;5.40;99.90;;;;;;4997164;28;20785;-48
2022/11/27 00:42:00;;;;;;;21.90;7.60;;;5.30;99.90;;;;;;4998692;28;20069;-48
2022/11/27 00:44:26;;;;;;;25.10;6.50;;;5.20;99.90;;;;;;5001912;28;20046;-48
2022/11/27 00:46:52;;;;;;;28.52;6.97;;;;;;;;;;5006289;28;20041;-47
2022/11/27 00:49:18;;;;;;;20.60;6.90;;;;;;;;;;5000410;28;20084;-48
2022/11/27 00:51:44;;;;;;;29.27;6.88;;;;;;;;;;5032269;28;20038;-47
2022/11/27 00:54:10;;;;;;;19.42;6.97;;;5.10;99.90;;;;;;4999156;28;20055;-46
2022/11/27 00:56:37;;;;;;;22.95;7.07;;;5.00;99.90;;;;;;5002248;28;20257;-48
2022/11/27 00:59:05;;;;;;;26.48;7.57;;;5.20;99.90;;;;;;4999501;28;20040;-50
2022/11/27 01:01:37;;;;;;;26.52;8.98;;;5.10;99.90;;;;;;4996737;28;20077;-47
2022/11/27 01:04:05;;;;;;;27.58;7.95;;;5.20;99.90;;;;;;5000428;28;20081;-51
2022/11/27 01:06:31;;;;;;;21.23;6.53;;;5.20;99.90;;;;;;4997169;28;20124;-47
2022/11/27 01:08:58;;;;;;;26.30;8.02;;;5.10;99.90;;;;;;4998956;28;20760;-47
2022/11/27 01:11:26;;;;;;;30.05;7.07;;;5.10;99.90;;;;;;4997796;28;20414;-48
2022/11/27 01:13:54;;;;;;;25.83;8.13;;;4.90;99.90;;;;;;4998018;28;20052;-47
2022/11/27 01:16:23;;;;;;;23.27;7.15;;;5.00;99.90;;;;;;4998071;28;20037;-47
2022/11/27 01:18:50;;;;;;;28.10;7.25;;;4.90;99.90;;;;;;4999226;28;20121;-49
2022/11/27 01:21:18;;;;;;;19.75;6.43;;;4.90;99.90;;;;;;4999279;28;20081;-48
2022/11/27 01:23:45;;;;;;;24.92;8.95;;;;;;;;;;4997913;28;20061;-49
2022/11/27 01:26:11;;;;;;;25.40;6.65;;;;;;;;;;4996702;28;20633;-49
2022/11/27 01:28:38;;;;;;;19.75;6.65;;;4.90;99.90;;;;;;4994706;28;20042;-48
2022/11/27 01:31:16;;;;;;;22.85;7.32;;;5.10;99.90;;;;;;4996747;28;20400;-47
2022/11/27 01:33:42;;;;;;;19.98;7.80;;;6.40;99.90;;;;;;5001195;28;20056;-48
2022/11/27 01:36:10;;;;;;;20.38;7.03;;;4.90;99.90;;;;;;5010957;28;20041;-49
2022/11/27 01:38:36;;;;;;;25.17;6.97;;;;;;;;;;4998293;28;20039;-48
2022/11/27 01:41:11;;;;;;;27.10;8.20;;;4.70;99.90;;;;;;4996980;28;20121;-47
2022/11/27 01:43:49;;;;;;;20.20;7.68;;;4.80;99.90;;;;;;5000076;28;20054;-47
2022/11/27 01:46:25;;;;;;;22.58;6.80;;;4.70;99.90;;;;;;4996848;28;20188;-48
2022/11/27 01:48:58;;;;;;;21.58;7.95;;;4.70;99.90;;;;;;4998416;28;20069;-48
2022/11/27 01:51:25;;;;;;;16.50;6.47;;;;;;;;;;4999011;28;20050;-49
2022/11/27 01:53:52;;;;;;;20.58;6.82;;;4.70;99.90;;;;;;4996554;28;20105;-47
2022/11/27 01:56:19;;;;;;;22.17;7.47;;;4.80;99.90;;;;;;4997223;28;20795;-48
2022/11/27 01:58:45;;;;;;;20.42;6.53;;;4.80;99.90;;;;;;4999855;28;20041;-47
2022/11/27 02:01:11;;;;;;;20.50;7.88;;;;;;;;;;5000939;28;20730;-48
2022/11/27 02:03:37;;;;;;;20.95;7.07;;;4.90;99.90;;;;;;4995629;28;20062;-48
2022/11/27 02:06:03;;;;;;;21.45;7.30;;;;;;;;;;4999350;28;20659;-47
2022/11/27 02:08:29;;;;;;;20.20;7.28;;;;;;;;;;4996380;28;20498;-47
2022/11/27 02:11:03;;;;;;;21.55;7.22;;;5.00;99.90;;;;;;4999573;28;20064;-47
2022/11/27 02:13:35;;;;;;;23.35;7.15;;;5.00;99.90;;;;;;4995156;28;20132;-47
2022/11/27 02:16:42;;;;;;;17.00;6.43;;;5.10;99.90;;;;;;4999236;28;20092;-47
2022/11/27 02:19:29;;;;;;;25.13;6.75;;;5.10;99.90;;;;;;4998581;28;20465;-47
2022/11/27 02:22:08;;;;;;;20.50;7.03;;;5.20;99.90;;;;;;4999330;28;20047;-46
2022/11/27 02:25:06;;;;;;;17.23;5.78;;;5.20;99.90;;;;;;5000853;28;20049;-51
2022/11/27 02:28:02;;;;;;;16.23;6.07;;;5.10;99.90;;;;;;5000125;28;20042;-47
2022/11/27 02:30:36;;;;;;;22.42;6.65;;;5.10;99.90;;;;;;4999888;28;20075;-47
2022/11/27 02:33:08;;;;;;;15.98;6.07;;;5.30;99.90;;;;;;4996766;28;20050;-48
2022/11/27 02:35:46;;;;;;;16.57;6.03;;;5.20;99.90;;;;;;4997211;28;20045;-47
2022/11/27 02:38:28;;;;;;;18.25;6.07;;;5.30;99.90;;;;;;4996670;28;21120;-50
2022/11/27 02:41:01;;;;;;;18.75;5.50;;;5.40;99.90;;;;;;4995281;28;20052;-48
2022/11/27 02:43:38;;;;;;;16.88;5.60;;;5.30;99.90;;;;;;4996119;28;20256;-50
2022/11/27 02:46:07;;;;;;;18.65;6.18;;;5.30;99.90;;;;;;4996416;28;20061;-47
2022/11/27 02:48:43;;;;;;;15.88;6.00;;;5.30;99.90;;;;;;4997042;28;20046;-49
2022/11/27 02:51:11;;;;;;;18.95;5.82;;;5.50;99.90;;;;;;4996469;28;20072;-48
2022/11/27 02:53:57;;;;;;;18.77;6.70;;;5.30;99.90;;;;;;4994454;28;20052;-49
2022/11/27 02:56:25;;;;;;;19.52;6.90;;;5.50;99.90;;;;;;4995390;28;20054;-50
2022/11/27 02:58:55;;;;;;;19.20;7.82;;;5.30;99.90;;;;;;4995309;28;20050;-49
2022/11/27 03:01:22;;;;;;;25.45;7.82;;;5.50;99.90;;;;;;4996502;28;20120;-49
2022/11/27 03:03:51;;;;;;;21.85;6.78;;;5.40;99.90;;;;;;5000469;28;20388;-48
2022/11/27 03:06:25;;;;;;;20.35;7.05;;;5.50;99.90;;;;;;4998648;28;20180;-47
2022/11/27 03:08:59;;;;;;;15.50;6.60;;;5.20;99.90;;;;;;4995671;28;20061;-47
2022/11/27 03:11:26;;;;;;;17.75;7.15;;;;;;;;;;4997209;28;20072;-48
2022/11/27 03:13:57;;;;;;;18.48;7.05;;;5.40;99.90;;;;;;4998347;28;20049;-48
2022/11/27 03:16:23;;;;;;;21.98;7.05;;;;;;;;;;5000495;28;20045;-49
2022/11/27 03:19:17;;;;;;;21.67;7.38;;;5.30;99.90;;;;;;4994639;28;20040;-46
2022/11/27 03:21:51;;;;;;;14.55;6.63;;;5.20;99.90;;;;;;4998143;28;20092;-47
2022/11/27 03:24:17;;;;;;;26.60;8.20;;;5.30;99.90;;;;;;4999230;28;20545;-51
2022/11/27 03:26:43;;;;;;;17.98;7.35;;;;;;;;;;4997026;28;20435;-47
2022/11/27 03:29:15;;;;;;;24.15;7.05;;;5.10;99.90;;;;;;4994356;28;20053;-49
2022/11/27 03:31:41;;;;;;;19.63;6.88;;;;;;;;;;4998336;28;20418;-50
2022/11/27 03:34:08;;;;;;;17.85;6.78;;;5.30;99.90;;;;;;4998310;28;20399;-46
2022/11/27 03:36:34;;;;;;;23.77;8.02;;;;;;;;;;4998072;28;20498;-47
2022/11/27 03:39:00;;;;;;;22.92;7.53;;;5.30;99.90;;;;;;4997252;28;20078;-47
2022/11/27 03:41:48;;;;;;;25.73;7.10;;;5.40;99.90;;;;;;4997455;28;20037;-48
2022/11/27 03:44:28;;;;;;;17.58;6.63;;;5.40;99.90;;;;;;4996571;28;20053;-46
2022/11/27 03:47:15;;;;;;;21.15;7.22;;;5.40;99.90;;;;;;4995314;28;20046;-47
2022/11/27 03:50:09;;;;;;;20.02;7.40;;;5.50;99.90;;;;;;4996589;28;20045;-50
2022/11/27 03:52:48;;;;;;;17.00;6.50;;;5.30;99.90;;;;;;5004498;28;20050;-46
2022/11/27 03:55:37;;;;;;;19.55;6.70;;;5.50;99.90;;;;;;5000191;28;20132;-48
2022/11/27 03:58:08;;;;;;;21.90;6.47;;;5.30;99.90;;;;;;5011109;28;20045;-47
2022/11/27 04:00:39;;;;;;;18.75;6.28;;;5.50;99.90;;;;;;5001089;28;20110;-49
2022/11/27 04:03:09;;;;;;;16.85;6.25;;;5.50;99.90;;;;;;4998023;28;20135;-46
2022/11/27 04:05:35;;;;;;;16.98;6.65;;;5.30;99.90;;;;;;5001279;28;20064;-46
2022/11/27 04:08:01;;;;;;;21.08;6.82;;;5.40;99.90;;;;;;5000013;28;20797;-47
2022/11/27 04:10:27;;;;;;;15.85;5.78;;;;;;;;;;5000091;28;20556;-47
2022/11/27 04:12:53;;;;;;;17.35;5.90;;;5.40;99.90;;;;;;4998241;28;20045;-46
2022/11/27 04:15:19;;;;;;;16.77;6.10;;;;;;;;;;5009637;28;20042;-48
2022/11/27 04:17:45;;;;;;;20.77;6.85;;;;;;;;;;4997252;28;20669;-48
2022/11/27 04:20:13;;;;;;;18.38;6.53;;;5.40;99.90;;;;;;4996848;28;20058;-46
2022/11/27 04:22:39;;;;;;;14.55;6.00;;;;;;;;;;4998228;28;20652;-49
2022/11/27 04:25:05;;;;;;;17.42;6.05;;;5.50;99.90;;;;;;5000811;28;20057;-48
2022/11/27 04:27:31;;;;;;;14.40;6.10;;;;;;;;;;5001529;28;20128;-49
2022/11/27 04:29:57;;;;;;;19.83;5.43;;;5.50;99.90;;;;;;5001522;28;20081;-47
2022/11/27 04:32:23;;;;;;;14.07;5.57;;;;;;;;;;4997577;28;20133;-51
2022/11/27 04:34:49;;;;;;;14.65;6.00;;;;;;;;;;5001759;28;20108;-48
2022/11/27 04:37:15;;;;;;;15.73;5.35;;;;;;;;;;5004469;28;20049;-47
2022/11/27 04:39:41;;;;;;;14.40;5.32;;;;;;;;;;4996913;28;20057;-47
2022/11/27 04:42:07;;;;;;;12.88;4.97;;;5.30;99.90;;;;;;5000506;28;20041;-46
2022/11/27 04:44:33;;;;;;;16.33;5.40;;;;;;;;;;5013036;28;20042;-47
2022/11/27 04:46:59;;;;;;;12.52;5.03;;;;;;;;;;5002288;28;20100;-49
2022/11/27 04:49:25;;;;;;;15.15;5.45;;;5.40;99.90;;;;;;4999870;28;20037;-48
2022/11/27 04:51:50;;;;;;;15.68;6.55;;;5.40;99.90;;;;;;4997566;28;20056;-52
2022/11/27 04:54:16;;;;;;;17.83;5.35;;;5.50;99.90;;;;;;4998836;28;20080;-47
2022/11/27 04:56:42;;;;;;;15.60;5.43;;;5.40;99.90;;;;;;4998855;28;20493;-47
2022/11/27 04:59:08;;;;;;;16.20;5.28;;;;;;;;;;4997085;28;20073;-51
2022/11/27 05:01:34;;;;;;;15.40;5.03;;;5.30;99.90;;;;;;4996292;28;20662;-46
2022/11/27 05:03:59;;;;;;;14.60;5.03;;;5.40;99.90;;;;;;4998288;28;20823;-48
2022/11/27 05:06:25;;;;;;;14.00;5.25;;;5.40;99.90;;;;;;4997298;28;20041;-48
2022/11/27 05:08:58;;;;;;;11.75;5.82;;;5.20;99.90;;;;;;5000003;28;20088;-47
2022/11/27 05:11:24;;;;;;;15.45;4.90;;;5.30;99.90;;;;;;4998530;28;20033;-50
2022/11/27 05:14:13;;;;;;;14.85;5.28;;;5.40;99.90;;;;;;4996637;28;20515;-48
2022/11/27 05:16:36;;;;;;;11.75;4.60;;;5.30;99.90;;;;;;4998998;28;20414;-49
2022/11/27 05:19:02;;;;;;;19.02;5.72;;;5.30;99.90;;;;;;4998677;28;20045;-48
2022/11/27 05:21:28;;;;;;;18.10;4.82;;;;;;;;;;4999290;28;20045;-46
2022/11/27 05:23:54;;;;;;;16.30;4.88;;;;;;;;;;5000033;28;20407;-49
2022/11/27 05:26:19;;;;;;;16.33;4.78;;;5.30;99.90;;;;;;4997230;28;20052;-47
2022/11/27 05:28:45;;;;;;;14.27;4.53;;;5.30;99.90;;;;;;4995804;28;20038;-46
2022/11/27 05:31:11;;;;;;;15.10;4.50;;;;;;;;;;4998328;28;20045;-49
2022/11/27 05:33:37;;;;;;;11.82;4.50;;;;;;;;;;4999320;28;20042;-50
2022/11/27 05:36:03;;;;;;;13.98;5.03;;;;;;;;;;4995546;28;20042;-48
2022/11/27 05:38:30;;;;;;;16.48;4.70;;;;;;;;;;4998300;28;20449;-50
2022/11/27 05:40:56;;;;;;;11.73;4.55;;;5.40;99.90;;;;;;4999876;28;20042;-46
2022/11/27 05:43:22;;;;;;;9.93;4.38;;;;;;;;;;4998621;28;20055;-47
2022/11/27 05:45:47;;;;;;;16.92;5.90;;;5.40;99.90;;;;;;4996957;28;20045;-46
2022/11/27 05:48:13;;;;;;;15.45;4.75;;;5.50;99.90;;;;;;4997643;28;20042;-47
2022/11/27 05:50:39;;;;;;;12.85;4.90;;;;;;;;;;4999740;28;20044;-47
2022/11/27 05:53:05;;;;;;;15.50;4.75;;;5.50;99.90;;;;;;4996641;28;20045;-51
2022/11/27 05:55:31;;;;;;;12.93;4.38;;;5.40;99.90;;;;;;4998610;28;20087;-47
2022/11/27 05:57:57;;;;;;;14.85;5.32;;;;;;;;;;4998740;28;20041;-49
2022/11/27 06:00:25;;;;;;;20.05;4.88;;;5.30;99.90;;;;;;4998840;28;20050;-49
2022/11/27 06:02:51;;;;;;;13.98;4.55;;;5.40;99.90;;;;;;4994853;28;20334;-47
2022/11/27 06:05:17;;;;;;;13.50;3.78;;;5.40;99.90;;;;;;4995860;28;20038;-47
2022/11/27 06:07:43;;;;;;;15.02;4.55;;;;;;;;;;5009834;28;21432;-50
2022/11/27 06:10:09;;;;;;;10.38;3.90;;;5.50;99.90;;;;;;4999208;28;20092;-47
2022/11/27 06:12:35;;;;;;;14.88;4.60;;;;;;;;;;4997865;28;20049;-48
2022/11/27 06:15:02;;;;;;;12.23;4.30;;;;;;;;;;4996217;28;20502;-48
2022/11/27 06:17:28;;;;;;;13.50;4.47;;;;;;;;;;4998074;28;20124;-48
2022/11/27 06:19:54;;;;;;;13.05;4.70;;;;;;;;;;4995210;28;20064;-48
2022/11/27 06:22:20;;;;;;;12.93;4.80;;;;;;;;;;5009166;28;20565;-49
2022/11/27 06:24:46;;;;;;;15.10;4.38;;;;;;;;;;4995607;28;20046;-49
2022/11/27 06:27:12;;;;;;;14.60;4.75;;;;;;;;;;4996390;28;20084;-51
2022/11/27 06:29:38;;;;;;;13.18;4.32;;;;;;;;;;4999958;28;20038;-50
2022/11/27 06:32:05;;;;;;;12.55;4.20;;;5.50;99.90;;;;;;4995445;28;20092;-50
2022/11/27 06:34:31;;;;;;;14.52;4.32;;;;;;;;;;4998451;28;20049;-47
2022/11/27 06:36:57;;;;;;;10.68;4.00;;;;;;;;;;4997860;28;20595;-49
2022/11/27 06:39:23;;;;;;;14.38;3.85;;;;;;;;;;4998761;28;20077;-50
2022/11/27 06:41:49;;;;;;;12.23;4.47;;;;;;;;;;4997276;28;20045;-47
2022/11/27 06:44:16;;;;;;;13.77;3.72;;;;;;;;;;4996196;28;20046;-51
2022/11/27 06:46:42;;;;;;;13.18;3.80;;;;;;;;;;4995315;28;20572;-46
2022/11/27 06:49:08;;;;;;;11.55;3.90;;;5.50;99.90;;;;;;4995952;28;20125;-49
2022/11/27 06:51:34;;;;;;;16.30;3.75;;;;;;;;;;4994688;28;20046;-46
2022/11/27 06:54:01;;;;;;;15.27;4.70;;;5.50;99.90;;;;;;4996495;28;20140;-47
2022/11/27 06:56:29;;;;;;;14.60;3.88;;;5.60;99.90;;;;;;4994089;28;20091;-48
2022/11/27 06:58:57;;;;;;;11.75;4.00;;;5.70;99.90;;;;;;5009516;28;21768;-48
2022/11/27 07:01:25;;;;;;;12.35;4.35;;;5.60;99.90;;;;;;4996629;28;20046;-50
2022/11/27 07:03:57;;;;;;;13.85;3.97;;;5.50;99.90;;;;;;4999039;28;20046;-47
2022/11/27 07:06:25;;;;;;;12.57;3.83;;;5.70;99.90;;;;;;4997671;28;20575;-49
2022/11/27 07:08:51;;;;;;;8.45;3.13;;;;;;;;;;5000947;28;20128;-48
2022/11/27 07:11:21;;;;;;;14.63;4.03;;;5.60;99.90;;;;;;4997747;28;20537;-48
2022/11/27 07:13:48;;;;;;;11.30;3.85;;;5.60;99.90;;;;;;5002230;28;20049;-51
2022/11/27 07:16:15;;;;;;;11.98;4.10;;;5.70;99.90;;;;;;5010181;28;20439;-47
2022/11/27 07:18:43;;;;;;;15.65;4.63;;;5.60;99.90;;;;;;5000812;28;20130;-51
2022/11/27 07:21:09;;;;;;;10.73;3.80;;;;;;;;;;4997657;28;20409;-48
2022/11/27 07:23:35;;;;;;;11.48;4.10;;;;;;;;;;5000311;28;20048;-49
2022/11/27 07:26:09;;;;;;;10.35;4.40;;;5.60;99.90;;;;;;5001614;28;20030;-48
2022/11/27 07:28:35;;;;;;;14.57;5.50;;;5.70;99.90;;;;;;4999501;28;20041;-47
2022/11/27 07:31:01;;;;;;;12.38;4.30;;;;;;;;;;5001758;28;20394;-49
2022/11/27 07:33:27;;;;;;;11.10;4.13;;;;;;;;;;5000874;28;20057;-46
2022/11/27 07:36:02;;;;;;;11.93;3.97;;;5.90;99.90;;;;;;5001379;28;20521;-47
2022/11/27 07:38:27;;;;;;;13.20;4.35;;;5.60;99.90;;;;;;5004607;28;20547;-48
2022/11/27 07:43:30;;;;;;;14.27;4.70;;;5.50;99.90;;;;;;1409017;23;20225;-48
2022/11/27 07:45:57;;;;;;;17.83;4.80;;;;;;;;;;5000883;28;20053;-48
2022/11/27 07:48:23;;;;;;;14.95;4.72;;;;;;;;;;5006146;28;20942;-47
2022/11/27 07:50:49;;;;;;;13.32;4.43;;;;;;;;;;5007799;28;20045;-48
2022/11/27 07:53:15;;;;;;;10.95;4.22;;;;;;;;;;5007902;28;20057;-48
2022/11/27 07:55:41;;;;;;;10.98;3.95;;;;;;;;;;5003695;28;20112;-49
2022/11/27 07:58:08;;;;;;;13.35;4.18;;;5.60;99.90;;;;;;5006536;28;20053;-47
2022/11/27 08:00:34;;;;;;;13.88;4.60;;;5.70;99.90;;;;;;4999242;28;20088;-47
2022/11/27 08:03:00;;;;;;;13.35;4.68;;;5.80;99.90;;;;;;5002498;28;20402;-50
2022/11/27 08:05:27;;;;;;;12.23;4.50;;;5.60;99.90;;;;;;5005808;28;20038;-51
2022/11/27 08:07:53;;;;;;;13.88;6.07;;;5.60;99.90;;;;;;5002726;28;20041;-47
2022/11/27 08:10:19;;;;;;;10.45;4.55;;;;;;;;;;5007277;28;20049;-48
2022/11/27 08:12:45;;;;;;;12.43;4.63;;;5.70;99.90;;;;;;5005705;28;20053;-46
2022/11/27 08:15:11;;;;;;;10.23;4.57;;;5.70;99.90;;;;;;5005558;28;20109;-47
2022/11/27 08:17:38;;;;;;;13.40;5.95;;;5.80;99.90;;;;;;5004243;28;20511;-47
2022/11/27 08:20:05;;;;;;;14.65;4.57;;;5.70;99.90;;;;;;5008469;28;20053;-47
2022/11/27 08:22:31;;;;;;;15.07;5.55;;;5.70;99.90;;;;;;5003083;28;20668;-46
2022/11/27 08:24:57;;;;;;;11.05;5.07;;;;;;;;;;5008979;28;20128;-47
2022/11/27 08:27:23;;;;;;;13.07;4.97;;;5.70;99.90;;;;;;5007095;28;20469;-47
2022/11/27 08:29:49;;;;;;;11.48;5.20;;;5.60;99.90;;;;;;5006906;28;20044;-47
2022/11/27 08:32:14;;;;;;;14.77;5.40;;;5.50;99.90;;;;;;5001880;28;20056;-47
2022/11/27 08:34:40;;;;;;;12.60;5.30;;;5.60;99.90;;;;;;5002666;28;20561;-49
2022/11/27 08:37:06;;;;;;;14.75;4.78;;;5.70;99.90;;;;;;5006005;28;20049;-48
2022/11/27 08:39:32;;;;;;;16.23;4.95;;;;;;;;;;5003996;28;20104;-47
2022/11/27 08:41:58;;;;;;;10.80;4.90;;;;;;;;;;5003530;28;20050;-47
2022/11/27 08:44:24;;;;;;;12.27;5.30;;;5.50;99.90;;;;;;5003513;28;20046;-48
2022/11/27 08:46:50;;;;;;;19.67;5.32;;;;;;;;;;5001818;28;20072;-47
2022/11/27 08:49:16;;;;;;;13.40;5.55;;;5.70;99.90;;;;;;5003328;28;20053;-46
2022/11/27 08:51:42;;;;;;;13.48;4.57;;;5.60;99.90;;;;;;5003032;28;20038;-50
2022/11/27 08:54:08;;;;;;;16.33;5.18;;;;;;;;;;5008517;28;20204;-50
2022/11/27 08:56:35;;;;;;;13.60;4.95;;;5.80;99.90;;;;;;5004946;28;20506;-46
2022/11/27 08:59:01;;;;;;;11.60;4.88;;;5.60;99.90;;;;;;5007236;28;20131;-48
2022/11/27 09:01:30;;;;;;;14.20;6.03;;;5.70;99.90;;;;;;5010900;28;20069;-45
2022/11/27 09:03:55;;;;;;;14.05;5.15;;;5.70;99.90;;;;;;5003668;28;20065;-47
2022/11/27 09:06:24;;;;;;;12.02;5.53;;;5.60;99.90;;;;;;5003189;28;20991;-48
2022/11/27 09:08:50;;;;;;;14.27;5.05;;;;;;;;;;5003252;28;20048;-48
2022/11/27 09:11:18;;;;;;;13.65;5.10;;;5.80;99.90;;;;;;5006003;28;20137;-47
2022/11/27 09:13:44;;;;;;;11.82;5.28;;;5.70;99.90;;;;;;5004232;28;20033;-48
2022/11/27 09:16:12;;;;;;;14.02;6.00;;;5.60;99.90;;;;;;5004193;28;20540;-47
2022/11/27 09:18:38;;;;;;;14.48;5.57;;;5.50;99.90;;;;;;5004463;28;20103;-50
2022/11/27 09:21:07;;;;;;;13.00;6.45;;;5.70;99.90;;;;;;5002832;28;20045;-47
2022/11/27 09:23:33;;;;;;;15.75;6.18;;;5.60;99.90;;;;;;5006604;28;20076;-51
2022/11/27 09:26:03;;;;;;;16.08;5.63;;;5.70;99.90;;;;;;5001912;28;20046;-46
2022/11/27 09:28:29;;;;;;;17.35;6.03;;;;;;;;;;5005166;28;20038;-47
2022/11/27 09:30:57;;;;;;;14.93;7.00;;;5.60;99.90;;;;;;4999695;28;20152;-47
2022/11/27 09:33:24;;;;;;;14.38;6.60;;;5.50;99.90;;;;;;5001941;28;20092;-50
2022/11/27 09:35:49;;;;;;;13.68;6.70;;;5.60;99.90;;;;;;5002347;28;20042;-49
2022/11/27 09:38:15;;;;;;;15.30;6.20;;;5.60;99.90;;;;;;4999827;28;20509;-48
2022/11/27 09:40:59;;;;;;;14.77;6.28;;;5.60;99.90;;;;;;5002121;28;20081;-48
2022/11/27 09:43:32;;;;;;;16.27;6.70;;;5.60;99.90;;;;;;5003390;28;20041;-47
2022/11/27 09:46:07;;;;;;;16.25;7.03;;;5.60;99.90;;;;;;5002193;28;20053;-46
2022/11/27 09:48:38;;;;;;;11.68;6.47;;;5.50;99.90;;;;;;4999508;28;20049;-48
2022/11/27 09:51:13;;;;;;;17.10;6.80;;;5.60;99.90;;;;;;4998953;28;20049;-48
2022/11/27 09:53:47;;;;;;;15.98;6.45;;;5.50;99.90;;;;;;5001390;28;20339;-51
2022/11/27 09:56:16;;;;;;;14.57;7.03;;;5.60;99.90;;;;;;5005140;28;20050;-46
2022/11/27 09:58:54;;;;;;;18.10;8.30;;;5.70;99.90;;;;;;5002569;28;20152;-49
2022/11/27 10:01:25;;;;;;;16.75;7.68;;;5.50;99.90;;;;;;4999038;28;20116;-47
2022/11/27 10:03:51;;;;;;;16.83;6.80;;;;;;;;;;5003998;28;20701;-48
2022/11/27 10:06:20;;;;;;;15.43;6.82;;;;;;;;;;4999509;28;20160;-50
2022/11/27 10:09:01;;;;;;;16.55;7.13;;;5.60;99.90;;;;;;5000735;28;20129;-45
2022/11/27 10:11:47;;;;;;;15.48;6.82;;;5.60;99.90;;;;;;4997328;28;20045;-47
2022/11/27 10:14:28;;;;;;;16.05;6.93;;;5.70;99.90;;;;;;5003048;28;20080;-48
2022/11/27 10:17:03;;;;;;;16.70;6.82;;;5.70;99.90;;;;;;5000061;28;20042;-51
2022/11/27 10:19:41;;;;;;;18.20;8.32;;;5.60;99.90;;;;;;5004432;28;20067;-51
2022/11/27 10:22:19;;;;;;;14.77;8.23;;;5.50;99.90;;;;;;4999353;28;20448;-48
2022/11/27 10:25:11;;;;;;;22.23;8.73;;;5.70;99.90;;;;;;4999148;28;20045;-48
2022/11/27 10:27:42;;;;;;;23.02;8.45;;;5.60;99.90;;;;;;4999759;28;20524;-49
2022/11/27 10:30:16;;;;;;;22.33;8.32;;;5.60;99.90;;;;;;5001056;28;20037;-51
2022/11/27 10:32:43;;;;;;;18.67;7.95;;;5.60;99.90;;;;;;5001828;28;20527;-46
2022/11/27 10:35:14;;;;;;;16.00;7.53;;;5.60;99.90;;;;;;4999981;28;20083;-46
2022/11/27 10:37:54;;;;;;;18.90;7.38;;;5.80;99.90;;;;;;4999838;28;20781;-50
2022/11/27 10:40:30;;;;;;;17.85;8.25;;;5.50;99.90;;;;;;5003143;28;20099;-49
2022/11/27 10:43:03;;;;;;;21.92;7.57;;;5.70;99.90;;;;;;4999789;28;20398;-48
2022/11/27 10:46:08;;;;;;;15.07;7.80;;;5.60;99.90;;;;;;4998934;28;20073;-48
2022/11/27 10:48:34;;;;;;;21.27;7.60;;;;;;;;;;5002935;28;20767;-48
2022/11/27 10:51:00;;;;;;;21.70;8.38;;;5.80;99.90;;;;;;5004435;28;20049;-47
2022/11/27 10:53:28;;;;;;;22.98;8.00;;;5.80;99.90;;;;;;5001888;28;20068;-50
2022/11/27 10:55:54;;;;;;;17.60;8.05;;;;;;;;;;5002064;28;20055;-48
2022/11/27 10:58:48;;;;;;;16.73;7.72;;;5.90;99.90;;;;;;4999431;28;20518;-48
2022/11/27 11:01:17;;;;;;;17.15;8.05;;;5.70;99.90;;;;;;5006171;28;20046;-46
2022/11/27 11:03:43;;;;;;;16.27;8.10;;;;;;;;;;5006717;28;20135;-51
2022/11/27 11:06:18;;;;;;;19.08;7.93;;;5.70;99.90;;;;;;5003095;28;20049;-52
2022/11/27 11:08:44;;;;;;;17.70;7.53;;;5.80;99.90;;;;;;4996762;28;20716;-49
2022/11/27 11:11:09;;;;;;;17.17;7.68;;;5.70;99.90;;;;;;5002640;28;20049;-51
2022/11/27 11:13:45;;;;;;;14.27;8.18;;;5.80;99.90;;;;;;4993745;28;20628;-47
2022/11/27 11:16:11;;;;;;;18.65;8.15;;;;;;;;;;5003461;28;20080;-47
2022/11/27 11:18:50;;;;;;;14.80;8.00;;;5.90;99.90;;;;;;4999206;28;20065;-49
2022/11/27 11:21:32;;;;;;;19.88;8.80;;;6.00;99.90;;;;;;4999914;28;20477;-49
2022/11/27 11:24:12;;;;;;;18.35;8.75;;;5.90;99.90;;;;;;5015530;28;20459;-48
2022/11/27 11:26:43;;;;;;;18.15;7.97;;;6.00;99.90;;;;;;4994987;28;20034;-48
2022/11/27 11:29:24;;;;;;;17.73;8.77;;;5.80;99.90;;;;;;4996114;28;20112;-47
2022/11/27 11:31:50;;;;;;;20.48;8.25;;;;;;;;;;5003858;28;20700;-47
2022/11/27 11:34:20;;;;;;;16.27;8.15;;;5.80;99.90;;;;;;4997223;28;20046;-48
2022/11/27 11:37:21;;;;;;;17.50;7.60;;;6.20;99.90;;;;;;5000113;28;20060;-56
2022/11/27 11:39:55;;;;;;;15.85;8.00;;;6.00;99.90;;;;;;5007208;28;20084;-45
2022/11/27 11:42:23;;;;;;;21.90;8.70;;;5.90;99.90;;;;;;5004128;28;20091;-50
2022/11/27 11:44:52;;;;;;;16.15;8.63;;;6.00;99.90;;;;;;5000496;28;20100;-48
2022/11/27 11:47:21;;;;;;;15.55;7.43;;;6.00;99.90;;;;;;4996652;28;20726;-52
2022/11/27 11:49:49;;;;;;;18.08;7.93;;;6.00;99.90;;;;;;5006336;28;20056;-52
2022/11/27 11:52:20;;;;;;;14.63;7.40;;;;;;;;;;5002374;28;20130;-47
2022/11/27 11:55:05;;;;;;;17.77;8.53;;;6.10;99.90;;;;;;4998175;28;20042;-48
2022/11/27 11:57:54;;;;;;;19.42;7.03;;;6.10;99.90;;;;;;4999997;28;20077;-51
2022/11/27 12:00:22;;;;;;;16.25;7.85;;;6.20;99.90;;;;;;4997174;28;20785;-49
2022/11/27 12:03:12;;;;;;;15.75;7.78;;;6.00;99.90;;;;;;5002152;28;20056;-50
2022/11/27 12:05:38;;;;;;;16.35;8.18;;;;;;;;;;5002146;28;20069;-49
2022/11/27 12:08:16;;;;;;;16.17;7.97;;;6.10;99.90;;;;;;5001044;28;20065;-48
2022/11/27 12:11:06;;;;;;;16.77;7.95;;;6.30;99.90;;;;;;5005064;28;20256;-48
2022/11/27 12:14:00;;;;;;;20.92;9.07;;;6.20;99.90;;;;;;4999826;28;20586;-48
2022/11/27 12:16:25;;;;;;;17.35;7.97;;;6.10;99.90;;;;;;5002139;28;20042;-49
2022/11/27 12:19:18;;;;;;;13.30;6.95;;;6.00;99.90;;;;;;5004795;28;20045;-50
2022/11/27 12:22:21;;;;;;;19.55;8.27;;;6.20;99.90;;;;;;4999397;28;20045;-49
2022/11/27 12:25:08;;;;;;;13.90;7.95;;;6.10;99.90;;;;;;5001265;28;20060;-50
2022/11/27 12:28:24;;;;;;;14.68;7.45;;;6.20;99.90;;;;;;5003559;28;20359;-47
2022/11/27 12:31:08;;;;;;;15.57;8.20;;;6.20;99.90;;;;;;4994020;28;20056;-52
2022/11/27 12:33:49;;;;;;;17.80;8.10;;;6.30;99.90;;;;;;5001395;28;20049;-51
2022/11/27 12:36:21;;;;;;;14.20;8.70;;;6.00;99.90;;;;;;5003921;28;20060;-48
2022/11/27 12:38:55;;;;;;;17.73;7.50;;;6.10;99.90;;;;;;5003328;28;20041;-51
2022/11/27 12:41:30;;;;;;;16.00;8.00;;;6.20;99.90;;;;;;5005769;28;20455;-49
2022/11/27 12:43:59;;;;;;;16.70;8.18;;;6.20;99.90;;;;;;5000701;28;20053;-48
2022/11/27 12:46:36;;;;;;;15.35;8.25;;;6.30;99.90;;;;;;5002179;28;20048;-49
2022/11/27 12:49:16;;;;;;;16.23;7.63;;;6.30;99.90;;;;;;5004188;28;20053;-48
2022/11/27 12:51:53;;;;;;;20.63;7.25;;;6.20;99.90;;;;;;5002204;28;20186;-48
2022/11/27 12:54:40;;;;;;;14.02;7.40;;;6.30;99.90;;;;;;5001695;28;20576;-49
2022/11/27 12:57:13;;;;;;;18.42;7.50;;;6.30;99.90;;;;;;5004804;28;20042;-52
2022/11/27 12:59:46;;;;;;;16.60;7.68;;;6.20;99.90;;;;;;5004010;28;20536;-50
2022/11/27 13:02:40;;;;;;;15.35;7.97;;;6.10;99.90;;;;;;5004661;28;20081;-48
2022/11/27 13:05:13;;;;;;;12.38;7.10;;;6.20;99.90;;;;;;5005127;28;20049;-48
2022/11/27 13:07:39;;;;;;;13.98;6.80;;;;;;;;;;5003631;28;20146;-50
2022/11/27 13:10:27;;;;;;;12.25;6.80;;;6.40;99.90;;;;;;5003003;28;20038;-50
2022/11/27 13:13:08;;;;;;;14.23;7.28;;;6.30;99.90;;;;;;5003483;28;20042;-49
2022/11/27 13:15:40;;;;;;;19.10;6.97;;;6.30;99.90;;;;;;5004648;28;20060;-51
2022/11/27 13:18:20;;;;;;;12.70;6.63;;;6.30;99.90;;;;;;4998701;28;20137;-50
2022/11/27 13:20:48;;;;;;;15.23;7.03;;;6.40;99.90;;;;;;5007100;28;20636;-52
2022/11/27 13:23:14;;;;;;;18.67;6.82;;;6.40;99.90;;;;;;5004129;28;20045;-48
2022/11/27 13:25:47;;;;;;;13.82;6.40;;;6.30;99.90;;;;;;4999714;28;20042;-49
2022/11/27 13:28:29;;;;;;;13.95;6.80;;;6.20;99.90;;;;;;4999479;28;20041;-48
2022/11/27 13:30:58;;;;;;;15.98;6.72;;;6.50;99.90;;;;;;5003001;28;20049;-48
2022/11/27 13:33:45;;;;;;;13.07;6.22;;;6.30;99.90;;;;;;5000099;28;20356;-49